| time (UTC) | temp C | wind direction | speed KPH | gust KPH | rain 1hr cm | rain 24hr cm | rain mn cm | humidity % | barometer mb |
| 20260508154857 | 6 | 270 | 6.4 | 25.7 | 0.05 | 1.37 | 1.37 | 96 | 981.1 |
| 20260508154347 | 6 | 180 | 9.7 | 32.2 | 0.03 | 1.35 | 1.35 | 96 | 981.4 |
| 20260508153838 | 6 | 225 | 11.3 | 32.2 | 0.03 | 1.35 | 1.35 | 97 | 981.5 |
| 20260508153327 | 6 | 248 | 16.1 | 32.2 | 0.00 | 1.32 | 1.32 | 95 | 981.3 |
| 20260508152818 | 6 | 225 | 8.0 | 25.7 | 0.00 | 1.32 | 1.32 | 97 | 981.2 |
| 20260508151757 | 6 | 270 | 12.9 | 29.0 | 0.00 | 1.32 | 1.32 | 96 | 981.3 |
| 20260508151247 | 6 | 180 | 11.3 | 33.8 | 0.00 | 1.32 | 1.32 | 96 | 981.2 |
| 20260508150737 | 6 | 248 | 9.7 | 33.8 | 0.00 | 1.32 | 1.32 | 94 | 981.1 |
| 20260508150227 | 6 | 180 | 11.3 | 35.4 | 0.00 | 1.32 | 1.32 | 95 | 981.0 |
| 20260508145716 | 6 | 270 | 9.7 | 35.4 | 0.00 | 1.32 | 1.32 | 95 | 981.2 |
| 20260508145207 | 6 | 270 | 12.9 | 27.4 | 0.00 | 1.32 | 1.32 | 94 | 981.0 |
| 20260508144147 | 6 | 248 | 12.9 | 33.8 | 0.00 | 1.32 | 1.32 | 94 | 980.9 |
| 20260508143636 | 6 | 270 | 11.3 | 37.0 | 0.00 | 1.32 | 1.32 | 94 | 980.7 |
| 20260508143127 | 6 | 248 | 12.9 | 38.6 | 0.03 | 1.32 | 1.32 | 94 | 980.8 |
| 20260508142616 | 6 | 225 | 12.9 | 38.6 | 0.03 | 1.32 | 1.32 | 96 | 980.6 |
| 20260508142108 | 6 | 248 | 8.0 | 29.0 | 0.05 | 1.32 | 1.32 | 96 | 980.5 |
| 20260508141556 | 6 | 225 | 14.5 | 33.8 | 0.05 | 1.32 | 1.32 | 97 | 980.5 |
| 20260508141046 | 6 | 248 | 3.2 | 37.0 | 0.10 | 1.32 | 1.32 | 97 | 980.5 |
| 20260508140540 | 6 | 203 | 12.9 | 37.0 | 0.13 | 1.32 | 1.32 | 96 | 980.6 |
| 20260508140025 | 6 | 158 | 12.9 | 27.4 | 0.15 | 1.32 | 1.32 | 96 | 980.6 |
| 20260508135515 | 6 | 248 | 11.3 | 27.4 | 0.20 | 1.32 | 1.32 | 97 | 980.4 |
| 20260508135005 | 6 | 248 | 6.4 | 35.4 | 0.23 | 1.32 | 1.32 | 98 | 980.6 |
| 20260508133945 | 6 | 203 | 11.3 | 33.8 | 0.28 | 1.32 | 1.32 | 98 | 980.7 |
| 20260508133434 | 6 | 270 | 11.3 | 29.0 | 0.28 | 1.30 | 1.32 | 98 | 980.7 |
| 20260508132924 | 6 | 293 | 12.9 | 29.0 | 0.28 | 1.30 | 1.30 | 98 | 980.7 |
| 20260508132415 | 6 | 270 | 14.5 | 25.7 | 0.30 | 1.30 | 1.30 | 98 | 980.6 |
| 20260508131904 | 6 | 248 | 16.1 | 25.7 | 0.28 | 1.27 | 1.27 | 98 | 980.6 |
| 20260508131355 | 6 | 270 | 11.3 | 32.2 | 0.30 | 1.27 | 1.27 | 98 | 980.5 |
| 20260508130844 | 6 | 270 | 16.1 | 32.2 | 0.28 | 1.22 | 1.22 | 98 | 980.6 |
| 20260508125823 | 6 | 293 | 11.3 | 27.4 | 0.20 | 1.14 | 1.14 | 98 | 980.4 |
| 20260508125315 | 6 | 248 | 12.9 | 27.4 | 0.18 | 1.12 | 1.12 | 98 | 980.5 |
| 20260508124804 | 6 | 225 | 6.4 | 29.0 | 0.18 | 1.09 | 1.09 | 98 | 980.2 |
| 20260508124255 | 6 | 270 | 12.9 | 32.2 | 0.20 | 1.09 | 1.09 | 98 | 980.3 |
| 20260508123233 | 6 | 180 | 12.9 | 35.4 | 0.20 | 1.02 | 1.02 | 99 | 980.1 |
| 20260508122723 | 6 | 203 | 12.9 | 35.4 | 0.23 | 1.02 | 1.02 | 98 | 980.0 |
| 20260508122214 | 6 | 293 | 11.3 | 29.0 | 0.23 | 0.99 | 0.99 | 99 | 980.1 |
| 20260508121702 | 6 | 270 | 6.4 | 29.0 | 0.23 | 0.99 | 0.99 | 99 | 980.1 |
| 20260508121153 | 6 | 203 | 8.0 | 27.4 | 0.28 | 0.97 | 0.97 | 99 | 979.8 |
| 20260508120643 | 6 | 225 | 12.9 | 32.2 | 0.30 | 0.97 | 0.97 | 99 | 979.8 |
| 20260508120133 | 6 | 248 | 6.4 | 32.2 | 0.30 | 0.94 | 0.94 | 99 | 979.8 |
| 20260508115113 | 6 | 203 | 14.5 | 29.0 | 0.30 | 0.89 | 0.89 | 99 | 979.7 |
| 20260508114603 | 6 | 270 | 9.7 | 27.4 | 0.28 | 0.86 | 0.86 | 99 | 979.7 |
| 20260508114052 | 6 | 293 | 12.9 | 29.0 | 0.28 | 0.86 | 0.86 | 99 | 979.8 |
| 20260508113541 | 6 | 338 | 11.3 | 29.0 | 0.28 | 0.84 | 0.84 | 99 | 979.6 |
| 20260508113033 | 6 | 293 | 9.7 | 24.1 | 0.28 | 0.81 | 0.81 | 99 | 979.6 |
| 20260508112522 | 6 | 225 | 8.0 | 24.1 | 0.23 | 0.79 | 0.79 | 99 | 979.5 |
| 20260508112013 | 6 | 203 | 6.4 | 29.0 | 0.23 | 0.76 | 0.76 | 99 | 979.6 |
| 20260508111502 | 6 | 225 | 12.9 | 29.0 | 0.28 | 0.71 | 0.71 | 99 | 979.6 |
| 20260508110952 | 6 | 270 | 9.7 | 29.0 | 0.28 | 0.69 | 0.69 | 99 | 979.3 |
| 20260508110442 | 6 | 270 | 8.0 | 27.4 | 0.23 | 0.66 | 0.66 | 99 | 979.4 |
| 20260508105932 | 6 | 225 | 9.7 | 29.0 | 0.28 | 0.64 | 0.64 | 99 | 979.3 |
| 20260508105420 | 6 | 225 | 16.1 | 29.0 | 0.30 | 0.61 | 0.61 | 99 | 979.2 |
| 20260508104911 | 6 | 248 | 11.3 | 25.7 | 0.33 | 0.61 | 0.61 | 99 | 979.4 |
| 20260508104401 | 6 | 293 | 11.3 | 32.2 | 0.38 | 0.61 | 0.61 | 99 | 979.1 |
| 20260508103851 | 6 | 225 | 12.9 | 33.8 | 0.51 | 0.61 | 0.61 | 98 | 979.2 |
| 20260508103341 | 6 | 225 | 12.9 | 37.0 | 0.51 | 0.56 | 0.56 | 99 | 979.3 |
| 20260508102830 | 6 | 248 | 12.9 | 37.0 | 0.51 | 0.53 | 0.53 | 99 | 979.2 |
| 20260508102321 | 6 | 270 | 12.9 | 32.2 | 0.51 | 0.51 | 0.51 | 99 | 979.1 |
| 20260508101810 | 6 | 293 | 6.4 | 43.5 | 0.48 | 0.48 | 0.48 | 99 | 979.3 |
| 20260508101300 | 6 | 270 | 11.3 | 43.5 | 0.46 | 0.46 | 0.46 | 98 | 979.3 |
| 20260508100749 | 6 | 270 | 16.1 | 48.3 | 0.43 | 0.43 | 0.43 | 98 | 979.1 |
| 20260508100240 | 6 | 248 | 17.7 | 48.3 | 0.38 | 0.38 | 0.43 | 99 | 979.1 |
| 20260508095729 | 6 | 248 | 6.4 | 32.2 | 0.33 | 0.33 | 0.33 | 99 | 978.9 |
| 20260508095219 | 6 | 338 | 9.7 | 32.2 | 0.30 | 0.30 | 0.30 | 99 | 978.9 |
| 20260508094710 | 6 | 270 | 8.0 | 32.2 | 0.23 | 0.23 | 0.23 | 99 | 978.7 |
| 20260508094159 | 6 | 248 | 8.0 | 25.7 | 0.15 | 0.15 | 0.15 | 98 | 978.8 |
| 20260508093650 | 6 | 248 | 11.3 | 43.5 | 0.05 | 0.05 | 0.10 | 98 | 978.7 |
| 20260508093140 | 6 | 270 | 16.1 | 43.5 | 0.05 | 0.05 | 0.05 | 98 | 978.6 |
| 20260508092630 | 6 | 203 | 12.9 | 33.8 | 0.03 | 0.03 | 0.03 | 98 | 978.6 |
| 20260508091609 | 6 | 203 | 14.5 | 33.8 | 0.00 | 0.00 | 0.00 | 97 | 978.7 |
| 20260508091059 | 6 | 248 | 11.3 | 33.8 | 0.00 | 0.00 | 0.00 | 97 | 978.6 |
| 20260508090550 | 7 | 248 | 12.9 | 32.2 | 0.00 | 0.00 | 0.00 | 97 | 978.8 |
| 20260508090040 | 7 | 225 | 12.9 | 32.2 | 0.00 | 0.00 | 0.00 | 97 | 978.8 |
| 20260508085528 | 7 | 203 | 4.8 | 29.0 | 0.00 | 0.00 | 0.00 | 97 | 978.7 |
| 20260508085018 | 7 | 248 | 11.3 | 29.0 | 0.00 | 0.00 | 0.00 | 97 | 978.5 |
| 20260508084515 | 7 | 248 | 12.9 | 29.0 | 0.00 | 0.00 | 0.00 | 96 | 978.7 |
| 20260508083959 | 7 | 293 | 8.0 | 32.2 | 0.00 | 0.00 | 0.00 | 96 | 978.9 |
| 20260508082428 | 7 | 225 | 6.4 | 35.4 | 0.00 | 0.00 | 0.00 | 96 | 978.8 |
| 20260508080858 | 7 | 225 | 20.9 | 32.2 | 0.00 | 0.00 | 0.00 | 96 | 978.8 |
| 20260508080346 | 7 | 270 | 6.4 | 0.0 | 0.00 | 0.00 | 0.00 | 96 | 978.7 |
| 20260508080150 | 7 | 270 | 6.4 | 0.0 | 0.00 | 0.00 | 0.00 | 97 | 978.8 |
| 20260508075805 | 7 | 248 | 8.0 | 35.4 | 0.00 | 0.69 | 0.00 | 97 | 978.8 |
| 20260508075255 | 7 | 225 | 12.9 | 35.4 | 0.00 | 0.69 | 0.00 | 97 | 978.8 |
| 20260508074745 | 7 | 180 | 11.3 | 37.0 | 0.00 | 0.69 | 0.00 | 97 | 978.7 |
| 20260508074235 | 7 | 203 | 8.0 | 37.0 | 0.00 | 0.69 | 0.00 | 97 | 978.8 |
| 20260508073725 | 7 | 203 | 12.9 | 37.0 | 0.00 | 0.69 | 0.00 | 97 | 979.0 |
| 20260508072705 | 7 | 270 | 12.9 | 24.1 | 0.00 | 0.69 | 0.00 | 95 | 979.0 |
| 20260508072154 | 7 | 203 | 12.9 | 25.7 | 0.00 | 0.69 | 0.00 | 95 | 979.0 |
| 20260508071135 | 7 | 270 | 9.7 | 40.2 | 0.00 | 0.69 | 0.00 | 96 | 979.1 |
| 20260508070624 | 7 | 225 | 16.1 | 38.6 | 0.00 | 0.69 | 0.00 | 95 | 979.1 |
| 20260508070115 | 7 | 248 | 9.7 | 32.2 | 0.00 | 0.69 | 0.00 | 95 | 979.3 |
| 20260508065608 | 7 | 248 | 8.0 | 33.8 | 0.00 | 0.69 | 0.00 | 95 | 979.4 |
| 20260508065054 | 7 | 180 | 8.0 | 33.8 | 0.00 | 0.69 | 0.00 | 95 | 979.4 |
| 20260508064034 | 7 | 270 | 12.9 | 29.0 | 0.00 | 0.69 | 0.00 | 95 | 979.4 |
| 20260508063524 | 7 | 225 | 11.3 | 32.2 | 0.00 | 0.69 | 0.00 | 95 | 979.3 |
| 20260508063013 | 7 | 248 | 6.4 | 43.5 | 0.00 | 0.69 | 0.00 | 95 | 979.4 |
| 20260508062503 | 7 | 248 | 8.0 | 43.5 | 0.00 | 0.69 | 0.00 | 95 | 979.4 |
| 20260508061955 | 7 | 293 | 6.4 | 33.8 | 0.00 | 0.69 | 0.00 | 96 | 979.5 |
| 20260508061444 | 7 | 158 | 6.4 | 22.5 | 0.00 | 0.69 | 0.00 | 96 | 979.4 |
| 20260508060933 | 7 | 248 | 9.7 | 27.4 | 0.00 | 0.69 | 0.00 | 96 | 979.5 |
| 20260508060423 | 7 | 293 | 9.7 | 27.4 | 0.00 | 0.69 | 0.00 | 97 | 979.5 |
| 20260508055913 | 7 | 338 | 12.9 | 27.4 | 0.00 | 0.69 | 0.00 | 97 | 979.4 |
| 20260508055403 | 7 | 248 | 6.4 | 27.4 | 0.00 | 0.69 | 0.00 | 97 | 979.7 |
| 20260508054852 | 7 | 293 | 6.4 | 33.8 | 0.00 | 0.69 | 0.00 | 97 | 979.6 |
| 20260508054343 | 7 | 270 | 11.3 | 33.8 | 0.00 | 0.69 | 0.00 | 97 | 979.6 |
| 20260508053832 | 7 | 293 | 6.4 | 24.1 | 0.00 | 0.69 | 0.00 | 97 | 979.9 |
| 20260508053322 | 7 | 248 | 8.0 | 27.4 | 0.00 | 0.69 | 0.00 | 97 | 979.7 |
| 20260508052809 | 7 | 293 | 6.4 | 27.4 | 0.00 | 0.69 | 0.00 | 97 | 979.7 |
| 20260508052259 | 7 | 270 | 8.0 | 24.1 | 0.00 | 0.69 | 0.00 | 97 | 979.9 |
| 20260508051752 | 7 | 180 | 8.0 | 32.2 | 0.00 | 0.69 | 0.00 | 97 | 979.8 |
| 20260508051243 | 8 | 270 | 12.9 | 32.2 | 0.00 | 0.69 | 0.00 | 97 | 980.1 |
| 20260508050731 | 8 | 248 | 8.0 | 27.4 | 0.00 | 0.69 | 0.00 | 97 | 979.9 |
| 20260508050222 | 8 | 270 | 9.7 | 27.4 | 0.00 | 0.69 | 0.00 | 97 | 979.8 |
| 20260508045711 | 8 | 225 | 9.7 | 24.1 | 0.00 | 0.69 | 0.00 | 97 | 979.8 |
| 20260508045201 | 8 | 293 | 6.4 | 24.1 | 0.00 | 0.69 | 0.00 | 97 | 979.9 |
| 20260508044651 | 8 | 225 | 8.0 | 32.2 | 0.00 | 0.69 | 0.00 | 97 | 979.7 |
| 20260508044141 | 8 | 158 | 3.2 | 32.2 | 0.00 | 0.69 | 0.00 | 97 | 980.0 |
| 20260508043631 | 8 | 158 | 12.9 | 32.2 | 0.00 | 0.69 | 0.00 | 97 | 979.8 |
| 20260508043120 | 8 | 225 | 9.7 | 27.4 | 0.00 | 0.69 | 0.00 | 97 | 979.9 |
| 20260508042611 | 8 | 225 | 8.0 | 27.4 | 0.00 | 0.69 | 0.00 | 97 | 980.0 |
| 20260508041551 | 8 | 270 | 9.7 | 29.0 | 0.00 | 0.69 | 0.00 | 97 | 979.8 |
| 20260508041041 | 8 | 293 | 6.4 | 29.0 | 0.00 | 0.69 | 0.00 | 97 | 979.8 |
| 20260508040537 | 8 | 248 | 9.7 | 27.4 | 0.00 | 0.69 | 0.00 | 97 | 980.1 |
| 20260508040021 | 8 | 203 | 8.0 | 27.4 | 0.00 | 0.69 | 0.00 | 97 | 980.2 |
| 20260508035510 | 8 | 293 | 9.7 | 27.4 | 0.00 | 0.69 | 0.00 | 97 | 980.1 |
| 20260508035000 | 7 | 293 | 11.3 | 25.7 | 0.00 | 0.69 | 0.00 | 97 | 980.0 |
| 20260508034450 | 7 | 338 | 9.7 | 24.1 | 0.00 | 0.69 | 0.00 | 97 | 980.1 |
| 20260508033940 | 7 | 293 | 4.8 | 24.1 | 0.00 | 0.69 | 0.00 | 97 | 980.4 |
| 20260508033430 | 7 | 203 | 8.0 | 22.5 | 0.00 | 0.69 | 0.00 | 98 | 980.2 |
| 20260508032409 | 7 | 248 | 8.0 | 24.1 | 0.00 | 0.69 | 0.00 | 98 | 980.5 |
| 20260508031859 | 7 | 248 | 6.4 | 20.9 | 0.00 | 0.69 | 0.00 | 97 | 980.8 |
| 20260508031350 | 7 | 293 | 8.0 | 24.1 | 0.00 | 0.69 | 0.00 | 98 | 980.8 |
| 20260508030838 | 7 | 293 | 11.3 | 29.0 | 0.00 | 0.69 | 0.00 | 98 | 980.9 |
| 20260508030329 | 7 | 203 | 12.9 | 29.0 | 0.00 | 0.69 | 0.00 | 98 | 980.6 |
| 20260508025819 | 7 | 293 | 8.0 | 24.1 | 0.00 | 0.69 | 0.69 | 98 | 980.8 |
| 20260508025306 | 7 | 270 | 4.8 | 22.5 | 0.00 | 0.69 | 0.69 | 99 | 980.9 |
| 20260508024759 | 7 | 270 | 11.3 | 33.8 | 0.00 | 0.69 | 0.69 | 99 | 981.0 |
| 20260508024248 | 7 | 293 | 6.4 | 33.8 | 0.03 | 0.69 | 0.69 | 99 | 981.0 |
| 20260508023740 | 7 | 293 | 8.0 | 24.1 | 0.03 | 0.69 | 0.69 | 99 | 981.2 |
| 20260508023228 | 7 | 225 | 1.6 | 24.1 | 0.03 | 0.69 | 0.69 | 99 | 981.3 |
| 20260508022718 | 7 | 270 | 6.4 | 24.1 | 0.03 | 0.69 | 0.69 | 99 | 981.4 |
| 20260508015617 | 7 | 203 | 8.0 | 24.1 | 0.05 | 0.69 | 0.69 | 99 | 981.2 |
| 20260508015107 | 7 | 203 | 6.4 | 33.8 | 0.05 | 0.69 | 0.69 | 99 | 981.4 |
| 20260508014557 | 7 | 225 | 6.4 | 33.8 | 0.05 | 0.69 | 0.69 | 99 | 981.4 |
| 20260508014047 | 8 | 293 | 3.2 | 24.1 | 0.03 | 0.66 | 0.66 | 99 | 981.7 |
| 20260508013536 | 8 | 270 | 6.4 | 24.1 | 0.03 | 0.66 | 0.66 | 99 | 981.5 |
| 20260508012007 | 8 | 248 | 6.4 | 24.1 | 0.10 | 0.66 | 0.66 | 99 | 981.9 |
| 20260508011456 | 8 | 248 | 6.4 | 20.9 | 0.10 | 0.66 | 0.66 | 99 | 981.6 |
| 20260508010947 | 8 | 225 | 8.0 | 22.5 | 0.05 | 0.64 | 0.64 | 99 | 982.0 |
| 20260508010436 | 8 | 45 | 6.4 | 32.2 | 0.05 | 0.64 | 0.64 | 99 | 982.0 |
| 20260508005926 | 8 | 248 | 9.7 | 32.2 | 0.10 | 0.64 | 0.64 | 99 | 982.2 |
| 20260508005417 | 8 | 248 | 6.4 | 25.7 | 0.10 | 0.64 | 0.64 | 99 | 982.0 |
| 20260508003846 | 9 | 225 | 8.0 | 22.5 | 0.13 | 0.64 | 0.64 | 99 | 982.1 |
| 20260508003336 | 9 | 338 | 4.8 | 17.7 | 0.13 | 0.64 | 0.64 | 99 | 982.1 |
| 20260508002317 | 10 | 293 | 3.2 | 20.9 | 0.13 | 0.61 | 0.61 | 99 | 982.4 |
| 20260508001806 | 10 | 203 | 3.2 | 20.9 | 0.10 | 0.56 | 0.56 | 99 | 982.2 |
| 20260508001255 | 10 | 225 | 6.4 | 20.9 | 0.13 | 0.56 | 0.56 | 99 | 982.3 |
| 20260508000235 | 10 | 225 | 8.0 | 17.7 | 0.10 | 0.53 | 0.53 | 99 | 982.4 |
| 20260507235725 | 10 | 270 | 3.2 | 14.5 | 0.10 | 0.53 | 0.53 | 99 | 982.3 |
| 20260507235215 | 10 | 248 | 3.2 | 22.5 | 0.13 | 0.53 | 0.53 | 99 | 982.1 |
| 20260507234705 | 10 | 293 | 11.3 | 22.5 | 0.13 | 0.53 | 0.53 | 99 | 982.2 |
| 20260507233646 | 10 | 338 | 4.8 | 24.1 | 0.13 | 0.51 | 0.51 | 99 | 982.0 |
| 20260507233134 | 10 | 315 | 4.8 | 17.7 | 0.13 | 0.51 | 0.51 | 99 | 981.8 |
| 20260507232116 | 10 | 180 | 6.4 | 27.4 | 0.13 | 0.48 | 0.48 | 99 | 981.9 |
| 20260507231604 | 10 | 225 | 8.0 | 25.7 | 0.15 | 0.48 | 0.48 | 99 | 981.6 |
| 20260507230543 | 10 | 225 | 6.4 | 17.7 | 0.15 | 0.46 | 0.46 | 99 | 981.8 |
| 20260507230034 | 10 | 270 | 3.2 | 14.5 | 0.15 | 0.46 | 0.46 | 99 | 981.7 |
| 20260507225525 | 10 | 203 | 3.2 | 14.5 | 0.15 | 0.43 | 0.43 | 99 | 981.7 |
| 20260507225014 | 10 | 293 | 1.6 | 14.5 | 0.15 | 0.43 | 0.43 | 99 | 981.7 |
| 20260507224504 | 10 | 270 | 4.8 | 17.7 | 0.18 | 0.43 | 0.43 | 99 | 981.5 |
| 20260507223953 | 10 | 248 | 4.8 | 17.7 | 0.18 | 0.43 | 0.43 | 99 | 981.5 |
| 20260507223443 | 10 | 248 | 3.2 | 17.7 | 0.18 | 0.38 | 0.38 | 99 | 981.8 |
| 20260507222933 | 10 | 270 | 3.2 | 17.7 | 0.18 | 0.38 | 0.38 | 99 | 981.7 |
| 20260507222422 | 11 | 248 | 9.7 | 17.7 | 0.15 | 0.36 | 0.36 | 99 | 981.7 |
| 20260507221913 | 11 | 203 | 6.4 | 14.5 | 0.18 | 0.36 | 0.36 | 99 | 981.6 |
| 20260507221404 | 11 | 203 | 3.2 | 20.9 | 0.15 | 0.33 | 0.33 | 99 | 981.6 |
| 20260507220852 | 11 | 270 | 3.2 | 20.9 | 0.13 | 0.30 | 0.30 | 99 | 981.4 |
| 20260507220343 | 11 | 203 | 3.2 | 14.5 | 0.13 | 0.30 | 0.30 | 99 | 981.3 |
| 20260507215832 | 11 | 225 | 3.2 | 22.5 | 0.13 | 0.30 | 0.30 | 99 | 981.4 |
| 20260507215322 | 11 | 248 | 3.2 | 22.5 | 0.10 | 0.28 | 0.28 | 99 | 981.4 |
| 20260507214302 | 11 | 293 | 6.4 | 24.1 | 0.13 | 0.23 | 0.23 | 99 | 981.8 |
| 20260507213752 | 11 | 293 | 3.2 | 12.9 | 0.13 | 0.23 | 0.23 | 99 | 981.4 |
| 20260507213241 | 11 | 158 | 3.2 | 14.5 | 0.18 | 0.20 | 0.20 | 99 | 981.2 |
| 20260507212732 | 11 | 248 | 1.6 | 14.5 | 0.18 | 0.20 | 0.20 | 99 | 981.3 |
| 20260507212222 | 11 | 248 | 4.8 | 17.7 | 0.15 | 0.18 | 0.18 | 99 | 981.0 |
| 20260507211711 | 11 | 203 | 3.2 | 17.7 | 0.15 | 0.18 | 0.18 | 99 | 980.7 |
| 20260507211201 | 11 | 293 | 1.6 | 17.7 | 0.15 | 0.18 | 0.18 | 99 | 980.4 |
| 20260507210651 | 11 | 180 | 3.2 | 17.7 | 0.15 | 0.18 | 0.18 | 99 | 980.5 |
| 20260507210141 | 11 | 293 | 3.2 | 24.1 | 0.15 | 0.18 | 0.18 | 99 | 980.4 |
| 20260507205631 | 11 | 158 | 6.4 | 27.4 | 0.15 | 0.18 | 0.18 | 98 | 980.4 |
| 20260507205121 | 11 | 248 | 8.0 | 27.4 | 0.13 | 0.15 | 0.15 | 98 | 980.4 |
| 20260507204611 | 11 | 270 | 8.0 | 14.5 | 0.13 | 0.15 | 0.15 | 98 | 980.5 |
| 20260507204101 | 12 | 203 | 3.2 | 12.9 | 0.10 | 0.13 | 0.13 | 99 | 980.6 |
| 20260507203551 | 12 | 248 | 3.2 | 3.2 | 0.03 | 0.05 | 0.05 | 98 | 980.9 |
| 20260507203040 | 12 | 203 | 0.0 | 3.2 | 0.00 | 0.03 | 0.03 | 98 | 980.7 |
| 20260507202530 | 13 | 180 | 0.0 | 3.2 | 0.00 | 0.03 | 0.03 | 99 | 980.9 |
| 20260507201517 | 13 | 135 | 3.2 | 6.4 | 0.00 | 0.03 | 0.03 | 99 | 981.5 |
| 20260507201000 | 13 | 135 | 3.2 | 6.4 | 0.00 | 0.03 | 0.03 | 99 | 981.4 |
| 20260507195940 | 13 | 158 | 3.2 | 6.4 | 0.00 | 0.03 | 0.03 | 99 | 981.8 |
| 20260507195431 | 13 | 135 | 3.2 | 6.4 | 0.00 | 0.03 | 0.03 | 99 | 982.0 |
| 20260507194919 | 13 | 158 | 1.6 | 9.7 | 0.00 | 0.03 | 0.03 | 99 | 982.0 |
| 20260507194412 | 13 | 180 | 6.4 | 9.7 | 0.00 | 0.03 | 0.03 | 98 | 981.9 |
| 20260507193900 | 13 | 158 | 3.2 | 9.7 | 0.00 | 0.03 | 0.03 | 99 | 981.8 |
| 20260507193349 | 13 | 180 | 6.4 | 12.9 | 0.00 | 0.03 | 0.03 | 98 | 981.7 |
| 20260507192838 | 13 | 158 | 9.7 | 12.9 | 0.00 | 0.03 | 0.03 | 97 | 981.7 |
| 20260507192329 | 13 | 158 | 6.4 | 12.9 | 0.00 | 0.03 | 0.03 | 96 | 981.8 |
| 20260507191309 | 14 | 158 | 11.3 | 17.7 | 0.00 | 0.03 | 0.03 | 95 | 981.7 |
| 20260507190248 | 14 | 135 | 8.0 | 14.5 | 0.00 | 0.03 | 0.03 | 94 | 981.7 |
| 20260507185739 | 15 | 135 | 9.7 | 14.5 | 0.00 | 0.03 | 0.03 | 94 | 981.5 |
| 20260507185228 | 15 | 180 | 6.4 | 12.9 | 0.00 | 0.03 | 0.03 | 89 | 981.8 |
| 20260507184718 | 16 | 225 | 1.6 | 6.4 | 0.00 | 0.03 | 0.03 | 86 | 981.7 |
| 20260507184208 | 16 | 225 | 0.0 | 3.2 | 0.00 | 0.03 | 0.03 | 85 | 981.8 |
| 20260507183149 | 16 | 180 | 0.0 | 9.7 | 0.00 | 0.03 | 0.03 | 85 | 981.6 |
| 20260507182638 | 16 | 270 | 3.2 | 9.7 | 0.00 | 0.03 | 0.03 | 84 | 981.6 |
| 20260507182125 | 16 | 158 | 0.0 | 6.4 | 0.00 | 0.03 | 0.03 | 83 | 981.8 |
| 20260507181614 | 16 | 158 | 3.2 | 11.3 | 0.00 | 0.03 | 0.03 | 84 | 981.5 |
| 20260507181105 | 16 | 225 | 6.4 | 11.3 | 0.00 | 0.03 | 0.03 | 84 | 981.3 |
| 20260507180559 | 16 | 293 | 3.2 | 11.3 | 0.00 | 0.03 | 0.03 | 83 | 981.3 |
| 20260507180048 | 16 | 248 | 3.2 | 11.3 | 0.00 | 0.03 | 0.03 | 86 | 981.3 |
| 20260507175538 | 16 | 158 | 3.2 | 11.3 | 0.00 | 0.03 | 0.03 | 84 | 981.5 |
| 20260507175026 | 17 | 180 | 3.2 | 6.4 | 0.00 | 0.03 | 0.03 | 85 | 981.7 |
| 20260507174517 | 16 | 270 | 3.2 | 6.4 | 0.00 | 0.03 | 0.03 | 86 | 981.5 |
| 20260507174007 | 16 | 203 | 3.2 | 6.4 | 0.00 | 0.03 | 0.03 | 86 | 981.4 |
| 20260507173456 | 16 | 180 | 3.2 | 6.4 | 0.00 | 0.03 | 0.03 | 88 | 981.6 |
| 20260507172946 | 16 | 225 | 3.2 | 6.4 | 0.00 | 0.03 | 0.03 | 89 | 981.7 |
| 20260507172437 | 14 | 203 | 1.6 | 6.4 | 0.00 | 0.03 | 0.03 | 91 | 981.6 |
| 20260507171926 | 14 | 225 | 1.6 | 6.4 | 0.00 | 0.03 | 0.03 | 95 | 981.6 |
| 20260507171416 | 14 | 270 | 1.6 | 6.4 | 0.00 | 0.03 | 0.03 | 94 | 982.0 |
| 20260507170906 | 14 | 158 | 3.2 | 6.4 | 0.00 | 0.03 | 0.03 | 91 | 981.7 |
| 20260507170356 | 14 | 180 | 1.6 | 9.7 | 0.00 | 0.03 | 0.03 | 93 | 982.0 |
| 20260507165335 | 14 | 135 | 3.2 | 9.7 | 0.00 | 0.03 | 0.03 | 93 | 981.7 |
| 20260507164826 | 15 | 158 | 3.2 | 9.7 | 0.00 | 0.03 | 0.03 | 92 | 981.9 |
| 20260507164316 | 14 | 180 | 3.2 | 6.4 | 0.00 | 0.03 | 0.03 | 93 | 981.9 |
| 20260507163256 | 14 | 203 | 1.6 | 9.7 | 0.00 | 0.03 | 0.03 | 93 | 981.8 |
| 20260507162745 | 14 | 203 | 3.2 | 14.5 | 0.00 | 0.03 | 0.03 | 93 | 982.0 |
| 20260507162235 | 14 | 180 | 3.2 | 14.5 | 0.00 | 0.03 | 0.03 | 92 | 982.0 |
| 20260507161726 | 14 | 158 | 4.8 | 14.5 | 0.00 | 0.03 | 0.03 | 91 | 981.8 |
| 20260507161214 | 14 | 158 | 8.0 | 17.7 | 0.00 | 0.03 | 0.03 | 93 | 981.6 |
| 20260507160705 | 14 | 158 | 11.3 | 17.7 | 0.00 | 0.03 | 0.03 | 93 | 981.9 |
| 20260507160155 | 14 | 158 | 6.4 | 12.9 | 0.00 | 0.03 | 0.03 | 92 | 981.9 |
| 20260507155644 | 14 | 180 | 6.4 | 17.7 | 0.00 | 0.03 | 0.03 | 91 | 981.5 |
| 20260507155134 | 14 | 158 | 6.4 | 17.7 | 0.00 | 0.03 | 0.03 | 92 | 981.5 |